sensor_id;sensor_type;location;lat;lon;timestamp;pressure;altitude;pressure_sealevel;temperature;humidity
4745;BME280;2386;42.138;24.746;2022-12-18T00:01:02;100183.94;;;10.87;100.00
4745;BME280;2386;42.138;24.746;2022-12-18T00:03:33;100182.66;;;10.90;100.00
4745;BME280;2386;42.138;24.746;2022-12-18T00:05:59;100197.50;;;10.87;100.00
4745;BME280;2386;42.138;24.746;2022-12-18T00:08:25;100192.72;;;10.82;100.00
4745;BME280;2386;42.138;24.746;2022-12-18T00:10:51;100206.00;;;10.97;100.00
4745;BME280;2386;42.138;24.746;2022-12-18T00:13:17;100218.94;;;10.95;100.00
4745;BME280;2386;42.138;24.746;2022-12-18T00:15:42;100213.91;;;10.99;100.00
4745;BME280;2386;42.138;24.746;2022-12-18T00:18:08;100238.56;;;10.97;100.00
4745;BME280;2386;42.138;24.746;2022-12-18T00:20:36;100231.72;;;10.88;100.00
4745;BME280;2386;42.138;24.746;2022-12-18T00:23:02;100254.66;;;10.92;100.00
4745;BME280;2386;42.138;24.746;2022-12-18T00:25:28;100241.78;;;10.81;100.00
4745;BME280;2386;42.138;24.746;2022-12-18T00:27:53;100243.69;;;10.74;100.00
4745;BME280;2386;42.138;24.746;2022-12-18T00:30:19;100238.28;;;10.74;100.00
4745;BME280;2386;42.138;24.746;2022-12-18T00:32:44;100231.81;;;10.75;100.00
4745;BME280;2386;42.138;24.746;2022-12-18T00:35:10;100238.09;;;10.69;100.00
4745;BME280;2386;42.138;24.746;2022-12-18T00:37:36;100251.22;;;10.72;100.00
4745;BME280;2386;42.138;24.746;2022-12-18T00:40:02;100248.94;;;10.69;100.00
4745;BME280;2386;42.138;24.746;2022-12-18T00:42:27;100256.22;;;10.75;100.00
4745;BME280;2386;42.138;24.746;2022-12-18T00:45:11;100272.06;;;10.78;100.00
4745;BME280;2386;42.138;24.746;2022-12-18T00:47:39;100260.59;;;10.76;100.00
4745;BME280;2386;42.138;24.746;2022-12-18T00:50:06;100278.53;;;10.77;100.00
4745;BME280;2386;42.138;24.746;2022-12-18T00:52:32;100283.97;;;10.77;100.00
4745;BME280;2386;42.138;24.746;2022-12-18T00:54:57;100294.78;;;10.90;100.00
4745;BME280;2386;42.138;24.746;2022-12-18T00:57:23;100270.84;;;10.74;100.00
4745;BME280;2386;42.138;24.746;2022-12-18T00:59:48;100282.09;;;10.77;100.00
4745;BME280;2386;42.138;24.746;2022-12-18T01:02:14;100272.50;;;10.75;100.00
4745;BME280;2386;42.138;24.746;2022-12-18T01:04:39;100272.50;;;10.75;100.00
4745;BME280;2386;42.138;24.746;2022-12-18T01:07:05;100266.22;;;10.36;100.00
4745;BME280;2386;42.138;24.746;2022-12-18T01:09:30;100284.59;;;10.21;100.00
4745;BME280;2386;42.138;24.746;2022-12-18T01:11:56;100271.66;;;10.23;100.00
4745;BME280;2386;42.138;24.746;2022-12-18T01:14:24;100274.56;;;10.35;100.00
4745;BME280;2386;42.138;24.746;2022-12-18T01:16:50;100271.78;;;10.48;100.00
4745;BME280;2386;42.138;24.746;2022-12-18T01:19:15;100263.44;;;10.43;100.00
4745;BME280;2386;42.138;24.746;2022-12-18T01:21:41;100264.94;;;10.39;100.00
4745;BME280;2386;42.138;24.746;2022-12-18T01:24:06;100261.22;;;10.33;100.00
4745;BME280;2386;42.138;24.746;2022-12-18T01:26:32;100271.78;;;10.41;100.00
4745;BME280;2386;42.138;24.746;2022-12-18T01:28:58;100264.53;;;10.35;100.00
4745;BME280;2386;42.138;24.746;2022-12-18T01:31:28;100276.13;;;10.56;100.00
4745;BME280;2386;42.138;24.746;2022-12-18T01:33:54;100279.47;;;10.58;100.00
4745;BME280;2386;42.138;24.746;2022-12-18T01:38:49;100266.34;;;10.48;100.00
4745;BME280;2386;42.138;24.746;2022-12-18T01:41:18;100278.66;;;10.50;100.00
4745;BME280;2386;42.138;24.746;2022-12-18T01:43:50;100279.06;;;10.47;100.00
4745;BME280;2386;42.138;24.746;2022-12-18T01:46:18;100272.81;;;10.47;100.00
4745;BME280;2386;42.138;24.746;2022-12-18T01:48:47;100259.13;;;10.35;100.00
4745;BME280;2386;42.138;24.746;2022-12-18T01:51:13;100258.28;;;10.35;100.00
4745;BME280;2386;42.138;24.746;2022-12-18T01:53:40;100272.84;;;10.40;100.00
4745;BME280;2386;42.138;24.746;2022-12-18T01:56:06;100256.75;;;10.45;100.00
4745;BME280;2386;42.138;24.746;2022-12-18T01:58:37;100273.81;;;10.59;100.00
4745;BME280;2386;42.138;24.746;2022-12-18T02:01:05;100277.13;;;10.68;100.00
4745;BME280;2386;42.138;24.746;2022-12-18T02:03:32;100279.31;;;10.91;100.00
4745;BME280;2386;42.138;24.746;2022-12-18T02:14:37;100293.06;;;11.27;100.00
4745;BME280;2386;42.138;24.746;2022-12-18T02:17:24;100286.41;;;11.23;100.00
4745;BME280;2386;42.138;24.746;2022-12-18T02:20:20;100287.47;;;11.22;100.00
4745;BME280;2386;42.138;24.746;2022-12-18T02:28:34;100298.13;;;11.55;100.00
4745;BME280;2386;42.138;24.746;2022-12-18T02:31:02;100300.66;;;11.50;100.00
4745;BME280;2386;42.138;24.746;2022-12-18T02:33:30;100317.44;;;11.72;100.00
4745;BME280;2386;42.138;24.746;2022-12-18T02:36:02;100301.78;;;11.67;100.00
4745;BME280;2386;42.138;24.746;2022-12-18T02:38:32;100290.75;;;11.62;100.00
4745;BME280;2386;42.138;24.746;2022-12-18T02:40:59;100301.00;;;11.60;100.00
4745;BME280;2386;42.138;24.746;2022-12-18T02:43:25;100295.22;;;11.50;100.00
4745;BME280;2386;42.138;24.746;2022-12-18T02:45:58;100284.69;;;11.60;100.00
4745;BME280;2386;42.138;24.746;2022-12-18T02:48:29;100294.13;;;11.58;100.00
4745;BME280;2386;42.138;24.746;2022-12-18T02:51:18;100300.88;;;11.48;100.00
4745;BME280;2386;42.138;24.746;2022-12-18T02:54:02;100282.59;;;11.31;100.00
4745;BME280;2386;42.138;24.746;2022-12-18T02:56:49;100313.63;;;11.48;100.00
4745;BME280;2386;42.138;24.746;2022-12-18T02:59:21;100292.50;;;11.50;100.00
4745;BME280;2386;42.138;24.746;2022-12-18T03:01:57;100311.66;;;11.62;100.00
4745;BME280;2386;42.138;24.746;2022-12-18T03:04:29;100307.97;;;11.49;100.00
4745;BME280;2386;42.138;24.746;2022-12-18T03:06:58;100302.59;;;11.43;100.00
4745;BME280;2386;42.138;24.746;2022-12-18T03:09:32;100324.41;;;11.61;100.00
4745;BME280;2386;42.138;24.746;2022-12-18T03:12:32;100310.44;;;11.58;100.00
4745;BME280;2386;42.138;24.746;2022-12-18T03:17:33;100304.50;;;11.36;100.00
4745;BME280;2386;42.138;24.746;2022-12-18T03:20:08;100302.94;;;11.22;100.00
4745;BME280;2386;42.138;24.746;2022-12-18T03:22:37;100328.59;;;11.26;100.00
4745;BME280;2386;42.138;24.746;2022-12-18T03:25:06;100310.84;;;11.23;100.00
4745;BME280;2386;42.138;24.746;2022-12-18T03:27:35;100309.63;;;11.19;100.00
4745;BME280;2386;42.138;24.746;2022-12-18T03:30:04;100328.78;;;11.31;100.00
4745;BME280;2386;42.138;24.746;2022-12-18T03:32:57;100323.78;;;11.28;100.00
4745;BME280;2386;42.138;24.746;2022-12-18T03:38:47;100344.47;;;11.29;100.00
4745;BME280;2386;42.138;24.746;2022-12-18T03:41:19;100345.25;;;11.36;100.00
4745;BME280;2386;42.138;24.746;2022-12-18T03:44:00;100344.03;;;11.32;100.00
4745;BME280;2386;42.138;24.746;2022-12-18T03:50:01;100355.69;;;11.39;100.00
4745;BME280;2386;42.138;24.746;2022-12-18T03:52:51;100364.81;;;11.51;100.00
4745;BME280;2386;42.138;24.746;2022-12-18T03:55:20;100377.53;;;11.57;100.00
4745;BME280;2386;42.138;24.746;2022-12-18T03:57:48;100382.50;;;11.60;100.00
4745;BME280;2386;42.138;24.746;2022-12-18T04:00:16;100381.25;;;11.63;100.00
4745;BME280;2386;42.138;24.746;2022-12-18T04:02:53;100374.72;;;11.70;100.00
4745;BME280;2386;42.138;24.746;2022-12-18T04:05:20;100369.53;;;11.62;100.00
4745;BME280;2386;42.138;24.746;2022-12-18T04:07:48;100382.16;;;11.50;100.00
4745;BME280;2386;42.138;24.746;2022-12-18T04:10:15;100403.03;;;11.56;100.00
4745;BME280;2386;42.138;24.746;2022-12-18T04:12:41;100376.31;;;11.46;100.00
4745;BME280;2386;42.138;24.746;2022-12-18T04:15:08;100396.19;;;11.47;100.00
4745;BME280;2386;42.138;24.746;2022-12-18T04:17:34;100390.13;;;11.45;100.00
4745;BME280;2386;42.138;24.746;2022-12-18T04:20:00;100396.53;;;11.57;100.00
4745;BME280;2386;42.138;24.746;2022-12-18T04:22:25;100396.78;;;11.49;100.00
4745;BME280;2386;42.138;24.746;2022-12-18T04:24:51;100392.22;;;11.43;100.00
4745;BME280;2386;42.138;24.746;2022-12-18T04:27:16;100392.03;;;11.38;100.00
4745;BME280;2386;42.138;24.746;2022-12-18T04:29:41;100396.06;;;11.29;100.00
4745;BME280;2386;42.138;24.746;2022-12-18T04:32:08;100396.91;;;11.23;100.00
4745;BME280;2386;42.138;24.746;2022-12-18T04:34:33;100394.03;;;11.17;100.00
4745;BME280;2386;42.138;24.746;2022-12-18T04:36:58;100399.06;;;11.14;100.00
4745;BME280;2386;42.138;24.746;2022-12-18T04:39:24;100401.19;;;11.05;100.00
4745;BME280;2386;42.138;24.746;2022-12-18T04:41:49;100413.94;;;11.05;100.00
4745;BME280;2386;42.138;24.746;2022-12-18T04:44:15;100397.06;;;10.96;100.00
4745;BME280;2386;42.138;24.746;2022-12-18T04:46:40;100413.13;;;10.98;100.00
4745;BME280;2386;42.138;24.746;2022-12-18T04:49:05;100430.47;;;10.97;100.00
4745;BME280;2386;42.138;24.746;2022-12-18T04:51:31;100419.63;;;10.90;100.00
4745;BME280;2386;42.138;24.746;2022-12-18T04:53:56;100426.72;;;10.91;100.00
4745;BME280;2386;42.138;24.746;2022-12-18T04:56:22;100436.09;;;10.95;100.00
4745;BME280;2386;42.138;24.746;2022-12-18T04:58:47;100438.38;;;10.98;100.00
4745;BME280;2386;42.138;24.746;2022-12-18T05:01:15;100456.13;;;11.07;100.00
4745;BME280;2386;42.138;24.746;2022-12-18T05:03:40;100451.94;;;11.11;100.00
4745;BME280;2386;42.138;24.746;2022-12-18T05:06:07;100468.59;;;11.15;100.00
4745;BME280;2386;42.138;24.746;2022-12-18T05:08:32;100459.19;;;11.17;100.00
4745;BME280;2386;42.138;24.746;2022-12-18T05:11:05;100481.75;;;11.18;100.00
4745;BME280;2386;42.138;24.746;2022-12-18T05:13:31;100467.59;;;11.09;100.00
4745;BME280;2386;42.138;24.746;2022-12-18T05:15:57;100466.19;;;10.87;100.00
4745;BME280;2386;42.138;24.746;2022-12-18T05:18:23;100482.47;;;10.87;100.00
4745;BME280;2386;42.138;24.746;2022-12-18T05:20:53;100473.50;;;10.80;100.00
4745;BME280;2386;42.138;24.746;2022-12-18T05:23:19;100493.13;;;10.82;100.00
4745;BME280;2386;42.138;24.746;2022-12-18T05:26:00;100492.50;;;10.73;100.00
4745;BME280;2386;42.138;24.746;2022-12-18T05:28:28;100501.06;;;10.77;100.00
4745;BME280;2386;42.138;24.746;2022-12-18T05:30:57;100507.13;;;10.66;100.00
4745;BME280;2386;42.138;24.746;2022-12-18T05:33:25;100511.50;;;10.73;100.00
4745;BME280;2386;42.138;24.746;2022-12-18T05:35:52;100517.56;;;10.69;100.00
4745;BME280;2386;42.138;24.746;2022-12-18T05:38:18;100507.53;;;10.69;100.00
4745;BME280;2386;42.138;24.746;2022-12-18T05:40:44;100519.44;;;10.75;100.00
4745;BME280;2386;42.138;24.746;2022-12-18T05:43:10;100524.03;;;10.74;100.00
4745;BME280;2386;42.138;24.746;2022-12-18T05:45:39;100538.22;;;10.83;100.00
4745;BME280;2386;42.138;24.746;2022-12-18T05:48:06;100529.88;;;10.78;100.00
4745;BME280;2386;42.138;24.746;2022-12-18T05:50:39;100529.25;;;10.76;100.00
4745;BME280;2386;42.138;24.746;2022-12-18T05:53:06;100529.88;;;10.78;100.00
4745;BME280;2386;42.138;24.746;2022-12-18T05:55:35;100535.28;;;10.78;100.00
4745;BME280;2386;42.138;24.746;2022-12-18T05:58:02;100545.53;;;10.89;100.00
4745;BME280;2386;42.138;24.746;2022-12-18T06:00:28;100559.94;;;10.96;100.00
4745;BME280;2386;42.138;24.746;2022-12-18T06:02:54;100555.53;;;10.95;100.00
4745;BME280;2386;42.138;24.746;2022-12-18T06:05:19;100544.06;;;10.93;100.00
4745;BME280;2386;42.138;24.746;2022-12-18T06:07:45;100546.34;;;10.96;100.00
4745;BME280;2386;42.138;24.746;2022-12-18T06:10:10;100553.66;;;11.02;100.00
4745;BME280;2386;42.138;24.746;2022-12-18T06:12:36;100555.75;;;11.07;100.00
4745;BME280;2386;42.138;24.746;2022-12-18T06:15:02;100561.59;;;11.10;100.00
4745;BME280;2386;42.138;24.746;2022-12-18T06:17:32;100565.94;;;11.18;100.00
4745;BME280;2386;42.138;24.746;2022-12-18T06:19:58;100566.13;;;11.16;100.00
4745;BME280;2386;42.138;24.746;2022-12-18T06:22:23;100576.63;;;11.13;100.00
4745;BME280;2386;42.138;24.746;2022-12-18T06:24:49;100583.31;;;11.10;100.00
4745;BME280;2386;42.138;24.746;2022-12-18T06:27:15;100574.53;;;11.08;100.00
4745;BME280;2386;42.138;24.746;2022-12-18T06:29:41;100581.00;;;11.07;100.00
4745;BME280;2386;42.138;24.746;2022-12-18T06:32:06;100591.88;;;11.14;100.00
4745;BME280;2386;42.138;24.746;2022-12-18T06:34:37;100576.63;;;11.13;100.00
4745;BME280;2386;42.138;24.746;2022-12-18T06:37:07;100596.00;;;11.16;100.00
4745;BME280;2386;42.138;24.746;2022-12-18T06:39:38;100593.28;;;11.16;100.00
4745;BME280;2386;42.138;24.746;2022-12-18T06:45:49;100607.06;;;11.22;100.00
4745;BME280;2386;42.138;24.746;2022-12-18T06:58:24;100629.88;;;11.14;100.00
4745;BME280;2386;42.138;24.746;2022-12-18T07:01:17;100635.06;;;11.15;100.00
4745;BME280;2386;42.138;24.746;2022-12-18T07:03:55;100649.06;;;11.19;100.00
4745;BME280;2386;42.138;24.746;2022-12-18T07:06:42;100631.34;;;11.03;100.00
4745;BME280;2386;42.138;24.746;2022-12-18T07:09:11;100629.47;;;11.04;100.00
4745;BME280;2386;42.138;24.746;2022-12-18T07:11:47;100633.00;;;11.04;100.00
4745;BME280;2386;42.138;24.746;2022-12-18T07:18:18;100654.06;;;11.15;100.00
